sensor_id;sensor_type;location;lat;lon;timestamp;pressure;altitude;pressure_sealevel;temperature
70050;BMP180;57391;51.306;22.680;2023-05-07T00:02:18;99980.40;;;5.80
70050;BMP180;57391;51.306;22.680;2023-05-07T00:04:45;99976.80;;;5.80
70050;BMP180;57391;51.306;22.680;2023-05-07T00:07:14;99981.60;;;5.80
70050;BMP180;57391;51.306;22.680;2023-05-07T00:09:41;99978.40;;;5.78
70050;BMP180;57391;51.306;22.680;2023-05-07T00:12:08;99981.80;;;5.72
70050;BMP180;57391;51.306;22.680;2023-05-07T00:14:36;99991.40;;;5.72
70050;BMP180;57391;51.306;22.680;2023-05-07T00:17:03;99987.20;;;5.72
70050;BMP180;57391;51.306;22.680;2023-05-07T00:19:31;99987.80;;;5.80
70050;BMP180;57391;51.306;22.680;2023-05-07T00:21:58;99996.40;;;5.80
70050;BMP180;57391;51.306;22.680;2023-05-07T00:24:26;99996.20;;;5.80
70050;BMP180;57391;51.306;22.680;2023-05-07T00:26:53;99989.80;;;5.80
70050;BMP180;57391;51.306;22.680;2023-05-07T00:29:20;99984.20;;;5.80
70050;BMP180;57391;51.306;22.680;2023-05-07T00:31:49;99974.80;;;5.80
70050;BMP180;57391;51.306;22.680;2023-05-07T00:34:16;99975.80;;;5.70
70050;BMP180;57391;51.306;22.680;2023-05-07T00:36:44;99965.40;;;5.72
70050;BMP180;57391;51.306;22.680;2023-05-07T00:39:11;99971.60;;;5.70
70050;BMP180;57391;51.306;22.680;2023-05-07T00:41:38;99970.40;;;5.70
70050;BMP180;57391;51.306;22.680;2023-05-07T00:44:05;99976.80;;;5.70
70050;BMP180;57391;51.306;22.680;2023-05-07T00:46:33;99978.00;;;5.70
70050;BMP180;57391;51.306;22.680;2023-05-07T00:49:01;99976.40;;;5.70
70050;BMP180;57391;51.306;22.680;2023-05-07T00:51:29;99974.20;;;5.70
70050;BMP180;57391;51.306;22.680;2023-05-07T00:53:57;99975.60;;;5.70
70050;BMP180;57391;51.306;22.680;2023-05-07T00:56:25;99972.40;;;5.66
70050;BMP180;57391;51.306;22.680;2023-05-07T00:58:52;99988.00;;;5.60
70050;BMP180;57391;51.306;22.680;2023-05-07T01:01:20;99980.00;;;5.60
70050;BMP180;57391;51.306;22.680;2023-05-07T01:03:47;99981.80;;;5.60
70050;BMP180;57391;51.306;22.680;2023-05-07T01:06:15;99986.40;;;5.60
70050;BMP180;57391;51.306;22.680;2023-05-07T01:08:44;99984.00;;;5.60
70050;BMP180;57391;51.306;22.680;2023-05-07T01:11:12;99988.80;;;5.60
70050;BMP180;57391;51.306;22.680;2023-05-07T01:13:40;99987.40;;;5.60
70050;BMP180;57391;51.306;22.680;2023-05-07T01:16:09;99995.80;;;5.60
70050;BMP180;57391;51.306;22.680;2023-05-07T01:18:36;99987.40;;;5.60
70050;BMP180;57391;51.306;22.680;2023-05-07T01:21:05;99988.60;;;5.58
70050;BMP180;57391;51.306;22.680;2023-05-07T01:23:33;99985.20;;;5.52
70050;BMP180;57391;51.306;22.680;2023-05-07T01:26:01;99980.00;;;5.52
70050;BMP180;57391;51.306;22.680;2023-05-07T01:28:29;99985.80;;;5.56
70050;BMP180;57391;51.306;22.680;2023-05-07T01:31:03;99987.00;;;5.54
70050;BMP180;57391;51.306;22.680;2023-05-07T01:33:34;99985.60;;;5.52
70050;BMP180;57391;51.306;22.680;2023-05-07T01:36:06;99982.60;;;5.50
70050;BMP180;57391;51.306;22.680;2023-05-07T01:38:35;99987.80;;;5.50
70050;BMP180;57391;51.306;22.680;2023-05-07T01:41:03;99987.00;;;5.50
70050;BMP180;57391;51.306;22.680;2023-05-07T01:43:31;99987.00;;;5.50
70050;BMP180;57391;51.306;22.680;2023-05-07T01:45:59;99985.00;;;5.50
70050;BMP180;57391;51.306;22.680;2023-05-07T01:48:27;99992.80;;;5.50
70050;BMP180;57391;51.306;22.680;2023-05-07T01:50:55;99997.20;;;5.50
70050;BMP180;57391;51.306;22.680;2023-05-07T01:53:23;99989.60;;;5.48
70050;BMP180;57391;51.306;22.680;2023-05-07T01:55:50;99991.40;;;5.50
70050;BMP180;57391;51.306;22.680;2023-05-07T01:58:17;99994.80;;;5.50
70050;BMP180;57391;51.306;22.680;2023-05-07T02:00:45;99992.20;;;5.40
70050;BMP180;57391;51.306;22.680;2023-05-07T02:03:13;99993.60;;;5.40
70050;BMP180;57391;51.306;22.680;2023-05-07T02:05:48;100000.40;;;5.40
70050;BMP180;57391;51.306;22.680;2023-05-07T02:08:31;99991.20;;;5.40
70050;BMP180;57391;51.306;22.680;2023-05-07T02:10:58;99993.60;;;5.40
70050;BMP180;57391;51.306;22.680;2023-05-07T02:13:33;99998.20;;;5.40
70050;BMP180;57391;51.306;22.680;2023-05-07T02:16:02;99997.40;;;5.40
70050;BMP180;57391;51.306;22.680;2023-05-07T02:18:30;99986.20;;;5.40
70050;BMP180;57391;51.306;22.680;2023-05-07T02:20:57;99990.00;;;5.40
70050;BMP180;57391;51.306;22.680;2023-05-07T02:23:24;99993.60;;;5.40
70050;BMP180;57391;51.306;22.680;2023-05-07T02:25:52;99993.00;;;5.40
70050;BMP180;57391;51.306;22.680;2023-05-07T02:28:21;99996.20;;;5.40
70050;BMP180;57391;51.306;22.680;2023-05-07T02:30:58;99996.80;;;5.40
70050;BMP180;57391;51.306;22.680;2023-05-07T02:33:27;99999.00;;;5.40
70050;BMP180;57391;51.306;22.680;2023-05-07T02:35:55;99994.80;;;5.38
70050;BMP180;57391;51.306;22.680;2023-05-07T02:38:23;99998.20;;;5.36
70050;BMP180;57391;51.306;22.680;2023-05-07T02:40:50;99999.40;;;5.30
70050;BMP180;57391;51.306;22.680;2023-05-07T02:43:17;99996.80;;;5.30
70050;BMP180;57391;51.306;22.680;2023-05-07T02:45:46;100003.40;;;5.30
70050;BMP180;57391;51.306;22.680;2023-05-07T02:48:14;100002.80;;;5.30
70050;BMP180;57391;51.306;22.680;2023-05-07T02:50:41;100000.20;;;5.30
70050;BMP180;57391;51.306;22.680;2023-05-07T02:53:09;100006.00;;;5.30
70050;BMP180;57391;51.306;22.680;2023-05-07T02:55:36;100007.00;;;5.30
70050;BMP180;57391;51.306;22.680;2023-05-07T02:58:03;100005.20;;;5.30
70050;BMP180;57391;51.306;22.680;2023-05-07T03:00:33;100004.60;;;5.30
70050;BMP180;57391;51.306;22.680;2023-05-07T03:03:11;100017.00;;;5.30
70050;BMP180;57391;51.306;22.680;2023-05-07T03:05:38;100011.00;;;5.30
70050;BMP180;57391;51.306;22.680;2023-05-07T03:08:08;100026.80;;;5.26
70050;BMP180;57391;51.306;22.680;2023-05-07T03:10:37;100016.40;;;5.20
70050;BMP180;57391;51.306;22.680;2023-05-07T03:13:04;100018.00;;;5.20
70050;BMP180;57391;51.306;22.680;2023-05-07T03:15:32;100020.40;;;5.20
70050;BMP180;57391;51.306;22.680;2023-05-07T03:17:59;100021.00;;;5.20
70050;BMP180;57391;51.306;22.680;2023-05-07T03:20:27;100016.00;;;5.28
70050;BMP180;57391;51.306;22.680;2023-05-07T03:22:54;100020.80;;;5.30
70050;BMP180;57391;51.306;22.680;2023-05-07T03:25:21;100017.60;;;5.30
70050;BMP180;57391;51.306;22.680;2023-05-07T03:27:48;100026.80;;;5.30
70050;BMP180;57391;51.306;22.680;2023-05-07T03:30:17;100030.20;;;5.30
70050;BMP180;57391;51.306;22.680;2023-05-07T03:32:44;100031.00;;;5.22
70050;BMP180;57391;51.306;22.680;2023-05-07T03:35:12;100038.40;;;5.20
70050;BMP180;57391;51.306;22.680;2023-05-07T03:37:40;100045.20;;;5.20
70050;BMP180;57391;51.306;22.680;2023-05-07T03:40:13;100045.00;;;5.16
70050;BMP180;57391;51.306;22.680;2023-05-07T03:42:47;100047.00;;;5.12
70050;BMP180;57391;51.306;22.680;2023-05-07T03:45:14;100054.60;;;5.10
70050;BMP180;57391;51.306;22.680;2023-05-07T03:47:44;100054.40;;;5.10
70050;BMP180;57391;51.306;22.680;2023-05-07T03:50:13;100056.00;;;5.10
70050;BMP180;57391;51.306;22.680;2023-05-07T03:52:40;100058.40;;;5.10
70050;BMP180;57391;51.306;22.680;2023-05-07T03:55:09;100060.60;;;5.10
70050;BMP180;57391;51.306;22.680;2023-05-07T03:57:37;100054.80;;;5.10
70050;BMP180;57391;51.306;22.680;2023-05-07T04:00:06;100053.80;;;5.10
70050;BMP180;57391;51.306;22.680;2023-05-07T04:02:47;100059.60;;;5.00
70050;BMP180;57391;51.306;22.680;2023-05-07T04:05:16;100058.40;;;5.04
70050;BMP180;57391;51.306;22.680;2023-05-07T04:07:43;100065.60;;;5.10
70050;BMP180;57391;51.306;22.680;2023-05-07T04:10:11;100073.40;;;5.10
70050;BMP180;57391;51.306;22.680;2023-05-07T04:12:41;100081.00;;;5.10
70050;BMP180;57391;51.306;22.680;2023-05-07T04:15:09;100067.60;;;5.10
70050;BMP180;57391;51.306;22.680;2023-05-07T04:17:36;100074.20;;;5.10
70050;BMP180;57391;51.306;22.680;2023-05-07T04:20:06;100074.00;;;5.10
70050;BMP180;57391;51.306;22.680;2023-05-07T04:22:35;100075.40;;;5.10
70050;BMP180;57391;51.306;22.680;2023-05-07T04:25:03;100081.20;;;5.10
70050;BMP180;57391;51.306;22.680;2023-05-07T04:27:32;100090.20;;;5.10
70050;BMP180;57391;51.306;22.680;2023-05-07T04:29:59;100094.20;;;5.10
70050;BMP180;57391;51.306;22.680;2023-05-07T04:32:29;100095.60;;;5.14
70050;BMP180;57391;51.306;22.680;2023-05-07T04:34:56;100092.80;;;5.20
70050;BMP180;57391;51.306;22.680;2023-05-07T04:37:25;100095.60;;;5.20
70050;BMP180;57391;51.306;22.680;2023-05-07T04:39:53;100097.80;;;5.20
70050;BMP180;57391;51.306;22.680;2023-05-07T04:42:20;100091.20;;;5.20
70050;BMP180;57391;51.306;22.680;2023-05-07T04:44:53;100098.40;;;5.20
70050;BMP180;57391;51.306;22.680;2023-05-07T04:47:21;100103.20;;;5.18
70050;BMP180;57391;51.306;22.680;2023-05-07T04:49:48;100100.80;;;5.10
70050;BMP180;57391;51.306;22.680;2023-05-07T04:52:15;100102.20;;;5.10
70050;BMP180;57391;51.306;22.680;2023-05-07T04:54:43;100104.80;;;5.10
70050;BMP180;57391;51.306;22.680;2023-05-07T04:57:10;100104.80;;;5.10
70050;BMP180;57391;51.306;22.680;2023-05-07T04:59:37;100106.60;;;5.10
70050;BMP180;57391;51.306;22.680;2023-05-07T05:02:05;100101.60;;;5.02
70050;BMP180;57391;51.306;22.680;2023-05-07T05:04:33;100109.40;;;5.08
70050;BMP180;57391;51.306;22.680;2023-05-07T05:07:00;100116.00;;;5.08
70050;BMP180;57391;51.306;22.680;2023-05-07T05:09:28;100114.60;;;5.10
70050;BMP180;57391;51.306;22.680;2023-05-07T05:11:56;100118.40;;;5.10
70050;BMP180;57391;51.306;22.680;2023-05-07T05:14:24;100123.20;;;5.10
70050;BMP180;57391;51.306;22.680;2023-05-07T05:16:51;100134.80;;;5.10
70050;BMP180;57391;51.306;22.680;2023-05-07T05:19:18;100125.80;;;5.10
70050;BMP180;57391;51.306;22.680;2023-05-07T05:21:46;100124.80;;;5.10
70050;BMP180;57391;51.306;22.680;2023-05-07T05:24:13;100121.60;;;5.10
70050;BMP180;57391;51.306;22.680;2023-05-07T05:26:41;100122.00;;;5.20
70050;BMP180;57391;51.306;22.680;2023-05-07T05:29:08;100117.40;;;5.20
70050;BMP180;57391;51.306;22.680;2023-05-07T05:31:36;100121.40;;;5.26
70050;BMP180;57391;51.306;22.680;2023-05-07T05:34:03;100122.80;;;5.22
70050;BMP180;57391;51.306;22.680;2023-05-07T05:36:30;100120.60;;;5.20
70050;BMP180;57391;51.306;22.680;2023-05-07T05:38:58;100132.20;;;5.20
70050;BMP180;57391;51.306;22.680;2023-05-07T05:41:25;100130.60;;;5.20
70050;BMP180;57391;51.306;22.680;2023-05-07T05:43:53;100132.60;;;5.20
70050;BMP180;57391;51.306;22.680;2023-05-07T05:46:20;100129.20;;;5.20
70050;BMP180;57391;51.306;22.680;2023-05-07T05:48:47;100136.80;;;5.28
70050;BMP180;57391;51.306;22.680;2023-05-07T05:51:15;100143.40;;;5.22
70050;BMP180;57391;51.306;22.680;2023-05-07T05:53:42;100135.20;;;5.22
70050;BMP180;57391;51.306;22.680;2023-05-07T05:56:09;100135.40;;;5.22
70050;BMP180;57391;51.306;22.680;2023-05-07T05:58:37;100139.40;;;5.30
70050;BMP180;57391;51.306;22.680;2023-05-07T06:01:05;100137.40;;;5.30
70050;BMP180;57391;51.306;22.680;2023-05-07T06:03:32;100142.00;;;5.30
70050;BMP180;57391;51.306;22.680;2023-05-07T06:06:01;100141.00;;;5.30
70050;BMP180;57391;51.306;22.680;2023-05-07T06:08:29;100143.80;;;5.40
70050;BMP180;57391;51.306;22.680;2023-05-07T06:10:58;100149.60;;;5.40
70050;BMP180;57391;51.306;22.680;2023-05-07T06:13:25;100148.40;;;5.40
70050;BMP180;57391;51.306;22.680;2023-05-07T06:15:53;100152.80;;;5.40
70050;BMP180;57391;51.306;22.680;2023-05-07T06:18:20;100153.80;;;5.40
70050;BMP180;57391;51.306;22.680;2023-05-07T06:20:47;100157.60;;;5.40
70050;BMP180;57391;51.306;22.680;2023-05-07T06:23:21;100156.60;;;5.40
70050;BMP180;57391;51.306;22.680;2023-05-07T06:25:49;100165.40;;;5.40
70050;BMP180;57391;51.306;22.680;2023-05-07T06:28:17;100158.20;;;5.40
70050;BMP180;57391;51.306;22.680;2023-05-07T06:30:45;100158.00;;;5.40
70050;BMP180;57391;51.306;22.680;2023-05-07T06:33:13;100159.40;;;5.40
70050;BMP180;57391;51.306;22.680;2023-05-07T06:35:40;100163.60;;;5.50
70050;BMP180;57391;51.306;22.680;2023-05-07T06:38:07;100167.60;;;5.50
70050;BMP180;57391;51.306;22.680;2023-05-07T06:40:34;100167.20;;;5.50
70050;BMP180;57391;51.306;22.680;2023-05-07T06:43:02;100173.20;;;5.50
70050;BMP180;57391;51.306;22.680;2023-05-07T06:45:42;100172.40;;;5.52
70050;BMP180;57391;51.306;22.680;2023-05-07T06:48:10;100176.80;;;5.60
70050;BMP180;57391;51.306;22.680;2023-05-07T06:50:45;100188.60;;;5.60
70050;BMP180;57391;51.306;22.680;2023-05-07T06:53:13;100188.20;;;5.60
70050;BMP180;57391;51.306;22.680;2023-05-07T06:55:40;100195.60;;;5.68
70050;BMP180;57391;51.306;22.680;2023-05-07T06:58:08;100198.40;;;5.70
70050;BMP180;57391;51.306;22.680;2023-05-07T07:00:35;100204.60;;;5.70
70050;BMP180;57391;51.306;22.680;2023-05-07T07:03:02;100207.40;;;5.70
70050;BMP180;57391;51.306;22.680;2023-05-07T07:05:31;100206.00;;;5.78
70050;BMP180;57391;51.306;22.680;2023-05-07T07:07:58;100207.00;;;5.80
70050;BMP180;57391;51.306;22.680;2023-05-07T07:10:25;100210.00;;;5.80
70050;BMP180;57391;51.306;22.680;2023-05-07T07:12:52;100211.80;;;5.80
70050;BMP180;57391;51.306;22.680;2023-05-07T07:15:21;100218.20;;;5.80
70050;BMP180;57391;51.306;22.680;2023-05-07T07:17:48;100215.60;;;5.80
70050;BMP180;57391;51.306;22.680;2023-05-07T07:20:16;100220.80;;;5.90
70050;BMP180;57391;51.306;22.680;2023-05-07T07:22:43;100221.60;;;5.90
70050;BMP180;57391;51.306;22.680;2023-05-07T07:25:10;100230.60;;;5.96
70050;BMP180;57391;51.306;22.680;2023-05-07T07:27:39;100228.00;;;6.00
70050;BMP180;57391;51.306;22.680;2023-05-07T07:30:07;100233.80;;;6.00
70050;BMP180;57391;51.306;22.680;2023-05-07T07:32:37;100231.80;;;6.00
70050;BMP180;57391;51.306;22.680;2023-05-07T07:35:05;100237.80;;;6.02
70050;BMP180;57391;51.306;22.680;2023-05-07T07:37:33;100239.60;;;6.10
70050;BMP180;57391;51.306;22.680;2023-05-07T07:40:00;100247.40;;;6.10
70050;BMP180;57391;51.306;22.680;2023-05-07T07:42:28;100247.20;;;6.14
70050;BMP180;57391;51.306;22.680;2023-05-07T07:44:56;100250.00;;;6.18
70050;BMP180;57391;51.306;22.680;2023-05-07T07:47:24;100262.80;;;6.20
70050;BMP180;57391;51.306;22.680;2023-05-07T07:49:52;100258.80;;;6.20
70050;BMP180;57391;51.306;22.680;2023-05-07T07:52:19;100258.60;;;6.20
70050;BMP180;57391;51.306;22.680;2023-05-07T07:54:47;100260.00;;;6.20
70050;BMP180;57391;51.306;22.680;2023-05-07T07:57:14;100261.40;;;6.20
70050;BMP180;57391;51.306;22.680;2023-05-07T07:59:42;100261.20;;;6.20
70050;BMP180;57391;51.306;22.680;2023-05-07T08:02:11;100268.40;;;6.20
70050;BMP180;57391;51.306;22.680;2023-05-07T08:04:38;100266.40;;;6.20
70050;BMP180;57391;51.306;22.680;2023-05-07T08:07:06;100266.20;;;6.20
70050;BMP180;57391;51.306;22.680;2023-05-07T08:09:36;100263.40;;;6.20
70050;BMP180;57391;51.306;22.680;2023-05-07T08:12:05;100261.60;;;6.20
70050;BMP180;57391;51.306;22.680;2023-05-07T08:14:34;100268.60;;;6.20
70050;BMP180;57391;51.306;22.680;2023-05-07T08:17:03;100270.80;;;6.30
70050;BMP180;57391;51.306;22.680;2023-05-07T08:19:31;100271.40;;;6.30
70050;BMP180;57391;51.306;22.680;2023-05-07T08:21:59;100279.40;;;6.30
70050;BMP180;57391;51.306;22.680;2023-05-07T08:24:26;100281.60;;;6.30
70050;BMP180;57391;51.306;22.680;2023-05-07T08:26:53;100273.80;;;6.30
70050;BMP180;57391;51.306;22.680;2023-05-07T08:29:21;100282.20;;;6.30
70050;BMP180;57391;51.306;22.680;2023-05-07T08:31:48;100283.00;;;6.30
70050;BMP180;57391;51.306;22.680;2023-05-07T08:34:16;100283.00;;;6.38
70050;BMP180;57391;51.306;22.680;2023-05-07T08:36:45;100286.40;;;6.40
70050;BMP180;57391;51.306;22.680;2023-05-07T08:39:16;100289.20;;;6.42
70050;BMP180;57391;51.306;22.680;2023-05-07T08:41:45;100294.00;;;6.48
70050;BMP180;57391;51.306;22.680;2023-05-07T08:44:16;100306.00;;;6.50
70050;BMP180;57391;51.306;22.680;2023-05-07T08:46:47;100312.40;;;6.60
70050;BMP180;57391;51.306;22.680;2023-05-07T08:49:17;100314.00;;;6.60
70050;BMP180;57391;51.306;22.680;2023-05-07T08:51:44;100310.20;;;6.60
70050;BMP180;57391;51.306;22.680;2023-05-07T08:54:16;100311.00;;;6.70
70050;BMP180;57391;51.306;22.680;2023-05-07T08:56:44;100317.40;;;6.70
70050;BMP180;57391;51.306;22.680;2023-05-07T08:59:11;100319.40;;;6.70
70050;BMP180;57391;51.306;22.680;2023-05-07T09:01:39;100324.00;;;6.70
70050;BMP180;57391;51.306;22.680;2023-05-07T09:04:07;100328.00;;;6.70
70050;BMP180;57391;51.306;22.680;2023-05-07T09:06:35;100329.80;;;6.70
70050;BMP180;57391;51.306;22.680;2023-05-07T09:09:05;100334.60;;;6.70
70050;BMP180;57391;51.306;22.680;2023-05-07T09:11:39;100330.80;;;6.70
70050;BMP180;57391;51.306;22.680;2023-05-07T09:14:09;100334.00;;;6.70
70050;BMP180;57391;51.306;22.680;2023-05-07T09:16:39;100333.00;;;6.70
70050;BMP180;57391;51.306;22.680;2023-05-07T09:19:14;100336.20;;;6.70
70050;BMP180;57391;51.306;22.680;2023-05-07T09:21:45;100337.00;;;6.70
70050;BMP180;57391;51.306;22.680;2023-05-07T09:24:15;100337.00;;;6.70
70050;BMP180;57391;51.306;22.680;2023-05-07T09:26:44;100341.40;;;6.70
70050;BMP180;57391;51.306;22.680;2023-05-07T09:29:11;100344.80;;;6.64
70050;BMP180;57391;51.306;22.680;2023-05-07T09:31:39;100348.80;;;6.68
70050;BMP180;57391;51.306;22.680;2023-05-07T09:34:08;100352.40;;;6.70
70050;BMP180;57391;51.306;22.680;2023-05-07T09:36:36;100348.00;;;6.70
70050;BMP180;57391;51.306;22.680;2023-05-07T09:39:03;100352.60;;;6.70
70050;BMP180;57391;51.306;22.680;2023-05-07T09:41:32;100358.80;;;6.70
70050;BMP180;57391;51.306;22.680;2023-05-07T09:44:07;100356.80;;;6.70
70050;BMP180;57391;51.306;22.680;2023-05-07T09:46:42;100352.00;;;6.70
70050;BMP180;57391;51.306;22.680;2023-05-07T09:49:23;100350.00;;;6.70
70050;BMP180;57391;51.306;22.680;2023-05-07T09:52:00;100349.00;;;6.80
70050;BMP180;57391;51.306;22.680;2023-05-07T09:54:29;100350.20;;;6.80
70050;BMP180;57391;51.306;22.680;2023-05-07T09:56:58;100350.60;;;6.80
70050;BMP180;57391;51.306;22.680;2023-05-07T09:59:27;100351.60;;;6.82
70050;BMP180;57391;51.306;22.680;2023-05-07T10:01:58;100353.80;;;6.90
70050;BMP180;57391;51.306;22.680;2023-05-07T10:04:27;100350.60;;;6.86
70050;BMP180;57391;51.306;22.680;2023-05-07T10:06:56;100355.20;;;6.90
70050;BMP180;57391;51.306;22.680;2023-05-07T10:09:26;100359.40;;;6.90
70050;BMP180;57391;51.306;22.680;2023-05-07T10:11:54;100361.40;;;6.90
70050;BMP180;57391;51.306;22.680;2023-05-07T10:14:23;100364.20;;;6.92
70050;BMP180;57391;51.306;22.680;2023-05-07T10:16:53;100368.80;;;6.98
70050;BMP180;57391;51.306;22.680;2023-05-07T10:19:22;100387.40;;;7.00
70050;BMP180;57391;51.306;22.680;2023-05-07T10:21:57;100374.60;;;6.90
70050;BMP180;57391;51.306;22.680;2023-05-07T10:24:32;100385.20;;;6.94
70050;BMP180;57391;51.306;22.680;2023-05-07T10:27:09;100399.00;;;6.98
70050;BMP180;57391;51.306;22.680;2023-05-07T10:32:52;100404.20;;;7.00
70050;BMP180;57391;51.306;22.680;2023-05-07T10:35:36;100414.60;;;7.00
70050;BMP180;57391;51.306;22.680;2023-05-07T10:38:05;100412.00;;;7.00
70050;BMP180;57391;51.306;22.680;2023-05-07T10:40:34;100415.20;;;7.00
70050;BMP180;57391;51.306;22.680;2023-05-07T10:43:05;100419.40;;;7.00
70050;BMP180;57391;51.306;22.680;2023-05-07T10:45:37;100416.80;;;7.00
70050;BMP180;57391;51.306;22.680;2023-05-07T10:48:15;100425.80;;;7.04
70050;BMP180;57391;51.306;22.680;2023-05-07T10:50:47;100427.80;;;7.10
70050;BMP180;57391;51.306;22.680;2023-05-07T10:56:24;100439.80;;;7.10
70050;BMP180;57391;51.306;22.680;2023-05-07T10:59:38;100443.00;;;7.20
70050;BMP180;57391;51.306;22.680;2023-05-07T11:02:19;100442.40;;;7.18
70050;BMP180;57391;51.306;22.680;2023-05-07T11:05:22;100446.20;;;7.20
70050;BMP180;57391;51.306;22.680;2023-05-07T11:08:04;100446.00;;;7.10
70050;BMP180;57391;51.306;22.680;2023-05-07T11:10:54;100442.40;;;7.10
70050;BMP180;57391;51.306;22.680;2023-05-07T11:13:42;100447.60;;;7.10
70050;BMP180;57391;51.306;22.680;2023-05-07T11:16:32;100439.00;;;7.10
70050;BMP180;57391;51.306;22.680;2023-05-07T11:19:51;100445.80;;;7.10
70050;BMP180;57391;51.306;22.680;2023-05-07T11:25:44;100445.80;;;7.10
70050;BMP180;57391;51.306;22.680;2023-05-07T11:28:20;100447.80;;;7.10
70050;BMP180;57391;51.306;22.680;2023-05-07T11:30:54;100455.20;;;7.00
70050;BMP180;57391;51.306;22.680;2023-05-07T11:33:23;100456.00;;;7.00
70050;BMP180;57391;51.306;22.680;2023-05-07T11:35:53;100459.00;;;7.00
70050;BMP180;57391;51.306;22.680;2023-05-07T11:38:22;100461.40;;;7.00
70050;BMP180;57391;51.306;22.680;2023-05-07T11:40:56;100466.40;;;7.00
70050;BMP180;57391;51.306;22.680;2023-05-07T11:43:23;100474.80;;;7.00
70050;BMP180;57391;51.306;22.680;2023-05-07T11:45:51;100473.40;;;7.00
70050;BMP180;57391;51.306;22.680;2023-05-07T11:48:22;100476.00;;;7.00
70050;BMP180;57391;51.306;22.680;2023-05-07T11:51:04;100469.20;;;7.00
70050;BMP180;57391;51.306;22.680;2023-05-07T11:53:41;100476.60;;;7.10
70050;BMP180;57391;51.306;22.680;2023-05-07T11:56:15;100481.40;;;7.06
70050;BMP180;57391;51.306;22.680;2023-05-07T11:59:42;100480.40;;;7.10
70050;BMP180;57391;51.306;22.680;2023-05-07T12:03:27;100481.80;;;7.10
70050;BMP180;57391;51.306;22.680;2023-05-07T12:06:18;100486.20;;;7.10
70050;BMP180;57391;51.306;22.680;2023-05-07T12:09:00;100483.60;;;7.10
70050;BMP180;57391;51.306;22.680;2023-05-07T12:11:27;100488.20;;;7.10
70050;BMP180;57391;51.306;22.680;2023-05-07T12:18:19;100488.80;;;7.20
70050;BMP180;57391;51.306;22.680;2023-05-07T12:21:11;100497.00;;;7.20
70050;BMP180;57391;51.306;22.680;2023-05-07T12:23:39;100495.80;;;7.20
70050;BMP180;57391;51.306;22.680;2023-05-07T12:26:09;100502.20;;;7.20
70050;BMP180;57391;51.306;22.680;2023-05-07T12:28:41;100507.20;;;7.24
70050;BMP180;57391;51.306;22.680;2023-05-07T12:31:32;100497.60;;;7.28
70050;BMP180;57391;51.306;22.680;2023-05-07T12:34:11;100500.20;;;7.30
70050;BMP180;57391;51.306;22.680;2023-05-07T12:36:40;100503.20;;;7.30
70050;BMP180;57391;51.306;22.680;2023-05-07T12:39:08;100511.60;;;7.30
70050;BMP180;57391;51.306;22.680;2023-05-07T12:41:55;100509.80;;;7.30
70050;BMP180;57391;51.306;22.680;2023-05-07T12:44:28;100513.60;;;7.30
70050;BMP180;57391;51.306;22.680;2023-05-07T12:46:56;100517.80;;;7.30
70050;BMP180;57391;51.306;22.680;2023-05-07T12:49:27;100508.40;;;7.30
70050;BMP180;57391;51.306;22.680;2023-05-07T12:51:57;100508.60;;;7.32
70050;BMP180;57391;51.306;22.680;2023-05-07T12:54:37;100510.40;;;7.40
70050;BMP180;57391;51.306;22.680;2023-05-07T12:57:07;100517.20;;;7.40
70050;BMP180;57391;51.306;22.680;2023-05-07T12:59:40;100522.20;;;7.40
70050;BMP180;57391;51.306;22.680;2023-05-07T13:02:09;100520.00;;;7.40
70050;BMP180;57391;51.306;22.680;2023-05-07T13:04:37;100518.60;;;7.40
70050;BMP180;57391;51.306;22.680;2023-05-07T13:07:05;100519.60;;;7.40
70050;BMP180;57391;51.306;22.680;2023-05-07T13:09:32;100525.20;;;7.40
70050;BMP180;57391;51.306;22.680;2023-05-07T13:11:59;100531.40;;;7.40
70050;BMP180;57391;51.306;22.680;2023-05-07T13:14:28;100534.40;;;7.40
70050;BMP180;57391;51.306;22.680;2023-05-07T13:16:55;100533.00;;;7.40
70050;BMP180;57391;51.306;22.680;2023-05-07T13:19:22;100530.60;;;7.40
70050;BMP180;57391;51.306;22.680;2023-05-07T13:21:50;100535.40;;;7.32
70050;BMP180;57391;51.306;22.680;2023-05-07T13:24:17;100533.60;;;7.30
70050;BMP180;57391;51.306;22.680;2023-05-07T13:26:44;100537.00;;;7.30
70050;BMP180;57391;51.306;22.680;2023-05-07T13:29:11;100532.60;;;7.30
70050;BMP180;57391;51.306;22.680;2023-05-07T13:31:39;100537.60;;;7.36
70050;BMP180;57391;51.306;22.680;2023-05-07T13:34:10;100545.00;;;7.40
70050;BMP180;57391;51.306;22.680;2023-05-07T13:36:37;100542.60;;;7.40
70050;BMP180;57391;51.306;22.680;2023-05-07T13:39:06;100539.40;;;7.40
70050;BMP180;57391;51.306;22.680;2023-05-07T13:41:34;100540.40;;;7.40
70050;BMP180;57391;51.306;22.680;2023-05-07T13:44:01;100537.20;;;7.40
70050;BMP180;57391;51.306;22.680;2023-05-07T13:46:29;100534.00;;;7.40
70050;BMP180;57391;51.306;22.680;2023-05-07T13:48:56;100532.60;;;7.50
70050;BMP180;57391;51.306;22.680;2023-05-07T13:51:24;100530.20;;;7.50
70050;BMP180;57391;51.306;22.680;2023-05-07T13:53:51;100532.40;;;7.58
70050;BMP180;57391;51.306;22.680;2023-05-07T13:56:21;100533.20;;;7.58
70050;BMP180;57391;51.306;22.680;2023-05-07T13:58:50;100534.60;;;7.52
70050;BMP180;57391;51.306;22.680;2023-05-07T14:01:19;100542.00;;;7.60
70050;BMP180;57391;51.306;22.680;2023-05-07T14:03:51;100544.40;;;7.60
70050;BMP180;57391;51.306;22.680;2023-05-07T14:06:20;100545.20;;;7.60
70050;BMP180;57391;51.306;22.680;2023-05-07T14:08:49;100547.40;;;7.60
70050;BMP180;57391;51.306;22.680;2023-05-07T14:11:17;100548.60;;;7.60
70050;BMP180;57391;51.306;22.680;2023-05-07T14:13:45;100549.00;;;7.60
70050;BMP180;57391;51.306;22.680;2023-05-07T14:16:12;100551.00;;;7.60
70050;BMP180;57391;51.306;22.680;2023-05-07T14:18:39;100553.20;;;7.60
70050;BMP180;57391;51.306;22.680;2023-05-07T14:21:24;100558.00;;;7.70
70050;BMP180;57391;51.306;22.680;2023-05-07T14:23:51;100563.20;;;7.70
70050;BMP180;57391;51.306;22.680;2023-05-07T14:26:19;100564.80;;;7.80
70050;BMP180;57391;51.306;22.680;2023-05-07T14:28:47;100564.00;;;7.80
70050;BMP180;57391;51.306;22.680;2023-05-07T14:31:17;100575.00;;;7.82